sensor_id;sensor_type;location;lat;lon;timestamp;P1;durP1;ratioP1;P2;durP2;ratioP2
9720;SDS011;4899;42.644;23.366;2022-12-15T00:00:46;27.07;;;18.93;;
9720;SDS011;4899;42.644;23.366;2022-12-15T00:03:30;27.70;;;18.47;;
9720;SDS011;4899;42.644;23.366;2022-12-15T00:06:14;28.83;;;19.87;;
9720;SDS011;4899;42.644;23.366;2022-12-15T00:08:58;38.13;;;21.00;;
9720;SDS011;4899;42.644;23.366;2022-12-15T00:11:42;33.37;;;22.20;;
9720;SDS011;4899;42.644;23.366;2022-12-15T00:14:26;39.93;;;24.13;;
9720;SDS011;4899;42.644;23.366;2022-12-15T00:17:09;35.33;;;21.57;;
9720;SDS011;4899;42.644;23.366;2022-12-15T00:19:54;36.13;;;22.57;;
9720;SDS011;4899;42.644;23.366;2022-12-15T00:22:37;31.57;;;22.07;;
9720;SDS011;4899;42.644;23.366;2022-12-15T00:25:21;29.53;;;20.57;;
9720;SDS011;4899;42.644;23.366;2022-12-15T00:28:05;33.63;;;22.07;;
9720;SDS011;4899;42.644;23.366;2022-12-15T00:30:49;31.77;;;22.20;;
9720;SDS011;4899;42.644;23.366;2022-12-15T00:33:33;28.47;;;21.10;;
9720;SDS011;4899;42.644;23.366;2022-12-15T00:36:17;35.77;;;24.13;;
9720;SDS011;4899;42.644;23.366;2022-12-15T00:39:01;30.77;;;22.20;;
9720;SDS011;4899;42.644;23.366;2022-12-15T00:41:27;35.83;;;23.87;;
9720;SDS011;4899;42.644;23.366;2022-12-15T00:43:52;38.40;;;24.80;;
9720;SDS011;4899;42.644;23.366;2022-12-15T00:46:18;35.87;;;23.63;;
9720;SDS011;4899;42.644;23.366;2022-12-15T00:49:02;32.03;;;22.43;;
9720;SDS011;4899;42.644;23.366;2022-12-15T00:51:27;30.93;;;22.40;;
9720;SDS011;4899;42.644;23.366;2022-12-15T00:54:11;32.17;;;21.97;;
9720;SDS011;4899;42.644;23.366;2022-12-15T00:56:56;31.23;;;22.47;;
9720;SDS011;4899;42.644;23.366;2022-12-15T00:59:40;35.03;;;23.57;;
9720;SDS011;4899;42.644;23.366;2022-12-15T01:02:24;31.33;;;22.10;;
9720;SDS011;4899;42.644;23.366;2022-12-15T01:05:08;37.07;;;23.60;;
9720;SDS011;4899;42.644;23.366;2022-12-15T01:07:52;37.13;;;24.40;;
9720;SDS011;4899;42.644;23.366;2022-12-15T01:10:36;44.67;;;25.00;;
9720;SDS011;4899;42.644;23.366;2022-12-15T01:13:20;40.70;;;25.90;;
9720;SDS011;4899;42.644;23.366;2022-12-15T01:16:11;37.13;;;23.03;;
9720;SDS011;4899;42.644;23.366;2022-12-15T01:18:55;37.73;;;25.57;;
9720;SDS011;4899;42.644;23.366;2022-12-15T01:21:39;41.00;;;25.57;;
9720;SDS011;4899;42.644;23.366;2022-12-15T01:24:05;40.27;;;25.80;;
9720;SDS011;4899;42.644;23.366;2022-12-15T01:26:30;39.33;;;25.17;;
9720;SDS011;4899;42.644;23.366;2022-12-15T01:28:56;40.07;;;24.13;;
9720;SDS011;4899;42.644;23.366;2022-12-15T01:31:21;38.63;;;23.27;;
9720;SDS011;4899;42.644;23.366;2022-12-15T01:33:46;45.17;;;26.10;;
9720;SDS011;4899;42.644;23.366;2022-12-15T01:36:12;28.97;;;20.87;;
9720;SDS011;4899;42.644;23.366;2022-12-15T01:38:38;40.47;;;23.73;;
9720;SDS011;4899;42.644;23.366;2022-12-15T01:41:04;34.30;;;23.37;;
9720;SDS011;4899;42.644;23.366;2022-12-15T01:43:35;30.80;;;20.43;;
9720;SDS011;4899;42.644;23.366;2022-12-15T01:46:05;32.90;;;21.00;;
9720;SDS011;4899;42.644;23.366;2022-12-15T01:48:53;35.60;;;20.93;;
9720;SDS011;4899;42.644;23.366;2022-12-15T01:51:25;34.33;;;20.50;;
9720;SDS011;4899;42.644;23.366;2022-12-15T01:53:58;31.47;;;18.80;;
9720;SDS011;4899;42.644;23.366;2022-12-15T01:56:25;30.83;;;19.93;;
9720;SDS011;4899;42.644;23.366;2022-12-15T01:58:52;26.70;;;17.70;;
9720;SDS011;4899;42.644;23.366;2022-12-15T02:01:20;25.63;;;18.37;;
9720;SDS011;4899;42.644;23.366;2022-12-15T02:03:46;25.93;;;17.47;;
9720;SDS011;4899;42.644;23.366;2022-12-15T02:06:12;22.20;;;16.20;;
9720;SDS011;4899;42.644;23.366;2022-12-15T02:08:38;20.87;;;15.30;;
9720;SDS011;4899;42.644;23.366;2022-12-15T02:14:04;20.63;;;14.33;;
9720;SDS011;4899;42.644;23.366;2022-12-15T02:31:22;12.27;;;10.63;;
9720;SDS011;4899;42.644;23.366;2022-12-15T02:36:54;12.70;;;11.30;;
9720;SDS011;4899;42.644;23.366;2022-12-15T02:39:25;14.03;;;11.30;;
9720;SDS011;4899;42.644;23.366;2022-12-15T02:41:51;15.20;;;11.60;;
9720;SDS011;4899;42.644;23.366;2022-12-15T02:44:33;18.00;;;13.30;;
9720;SDS011;4899;42.644;23.366;2022-12-15T02:55:09;22.23;;;15.63;;
9720;SDS011;4899;42.644;23.366;2022-12-15T02:57:40;23.30;;;16.80;;
9720;SDS011;4899;42.644;23.366;2022-12-15T03:00:12;26.37;;;16.97;;
9720;SDS011;4899;42.644;23.366;2022-12-15T03:02:41;22.80;;;15.13;;
9720;SDS011;4899;42.644;23.366;2022-12-15T03:05:11;25.80;;;17.53;;
9720;SDS011;4899;42.644;23.366;2022-12-15T03:07:38;23.17;;;16.07;;
9720;SDS011;4899;42.644;23.366;2022-12-15T03:10:05;24.50;;;16.33;;
9720;SDS011;4899;42.644;23.366;2022-12-15T03:12:31;22.03;;;15.90;;
9720;SDS011;4899;42.644;23.366;2022-12-15T03:14:57;26.90;;;17.97;;
9720;SDS011;4899;42.644;23.366;2022-12-15T03:17:22;26.40;;;16.77;;
9720;SDS011;4899;42.644;23.366;2022-12-15T03:19:48;27.50;;;17.47;;
9720;SDS011;4899;42.644;23.366;2022-12-15T03:22:13;27.10;;;15.67;;
9720;SDS011;4899;42.644;23.366;2022-12-15T03:24:39;25.43;;;16.67;;
9720;SDS011;4899;42.644;23.366;2022-12-15T03:27:04;25.17;;;15.87;;
9720;SDS011;4899;42.644;23.366;2022-12-15T03:29:29;25.13;;;16.10;;
9720;SDS011;4899;42.644;23.366;2022-12-15T03:31:55;24.87;;;15.90;;
9720;SDS011;4899;42.644;23.366;2022-12-15T03:34:20;26.27;;;16.40;;
9720;SDS011;4899;42.644;23.366;2022-12-15T03:36:45;29.67;;;17.87;;
9720;SDS011;4899;42.644;23.366;2022-12-15T03:39:11;25.13;;;16.77;;
9720;SDS011;4899;42.644;23.366;2022-12-15T03:41:37;28.40;;;17.10;;
9720;SDS011;4899;42.644;23.366;2022-12-15T03:44:02;32.07;;;17.77;;
9720;SDS011;4899;42.644;23.366;2022-12-15T03:46:28;32.83;;;16.40;;
9720;SDS011;4899;42.644;23.366;2022-12-15T03:48:53;30.40;;;19.13;;
9720;SDS011;4899;42.644;23.366;2022-12-15T03:51:19;28.67;;;18.60;;
9720;SDS011;4899;42.644;23.366;2022-12-15T03:53:45;26.63;;;16.87;;
9720;SDS011;4899;42.644;23.366;2022-12-15T03:56:13;30.83;;;19.87;;
9720;SDS011;4899;42.644;23.366;2022-12-15T03:58:40;26.87;;;18.13;;
9720;SDS011;4899;42.644;23.366;2022-12-15T04:01:09;27.00;;;18.33;;
9720;SDS011;4899;42.644;23.366;2022-12-15T04:03:36;27.20;;;16.83;;
9720;SDS011;4899;42.644;23.366;2022-12-15T04:06:01;28.77;;;18.83;;
9720;SDS011;4899;42.644;23.366;2022-12-15T04:08:26;29.33;;;18.80;;
9720;SDS011;4899;42.644;23.366;2022-12-15T04:10:52;28.70;;;18.43;;
9720;SDS011;4899;42.644;23.366;2022-12-15T04:13:17;31.70;;;19.70;;
9720;SDS011;4899;42.644;23.366;2022-12-15T04:15:43;27.50;;;18.20;;
9720;SDS011;4899;42.644;23.366;2022-12-15T04:18:09;27.20;;;18.33;;
9720;SDS011;4899;42.644;23.366;2022-12-15T04:20:35;30.23;;;20.37;;
9720;SDS011;4899;42.644;23.366;2022-12-15T04:23:01;33.03;;;21.60;;
9720;SDS011;4899;42.644;23.366;2022-12-15T04:25:26;32.07;;;20.57;;
9720;SDS011;4899;42.644;23.366;2022-12-15T04:28:10;43.03;;;28.37;;
9720;SDS011;4899;42.644;23.366;2022-12-15T04:31:05;36.37;;;21.47;;
9720;SDS011;4899;42.644;23.366;2022-12-15T04:33:53;42.73;;;23.90;;
9720;SDS011;4899;42.644;23.366;2022-12-15T04:36:38;37.60;;;22.90;;
9720;SDS011;4899;42.644;23.366;2022-12-15T04:39:25;35.20;;;22.73;;
9720;SDS011;4899;42.644;23.366;2022-12-15T04:42:10;33.23;;;22.13;;
9720;SDS011;4899;42.644;23.366;2022-12-15T04:44:56;33.33;;;21.20;;
9720;SDS011;4899;42.644;23.366;2022-12-15T04:47:42;28.13;;;18.53;;
9720;SDS011;4899;42.644;23.366;2022-12-15T04:50:26;24.17;;;19.03;;
9720;SDS011;4899;42.644;23.366;2022-12-15T04:53:12;30.20;;;20.17;;
9720;SDS011;4899;42.644;23.366;2022-12-15T04:55:58;32.33;;;19.17;;
9720;SDS011;4899;42.644;23.366;2022-12-15T04:58:43;31.83;;;20.63;;
9720;SDS011;4899;42.644;23.366;2022-12-15T05:01:27;31.70;;;20.40;;
9720;SDS011;4899;42.644;23.366;2022-12-15T05:04:11;28.87;;;19.73;;
9720;SDS011;4899;42.644;23.366;2022-12-15T05:06:55;30.10;;;22.17;;
9720;SDS011;4899;42.644;23.366;2022-12-15T05:09:40;31.37;;;20.10;;
9720;SDS011;4899;42.644;23.366;2022-12-15T05:12:24;37.80;;;23.77;;
9720;SDS011;4899;42.644;23.366;2022-12-15T05:15:08;36.40;;;23.43;;
9720;SDS011;4899;42.644;23.366;2022-12-15T05:17:52;40.50;;;27.07;;
9720;SDS011;4899;42.644;23.366;2022-12-15T05:20:36;45.57;;;24.50;;
9720;SDS011;4899;42.644;23.366;2022-12-15T05:23:21;40.57;;;23.33;;
9720;SDS011;4899;42.644;23.366;2022-12-15T05:26:05;41.77;;;23.60;;
9720;SDS011;4899;42.644;23.366;2022-12-15T05:28:48;39.67;;;23.83;;
9720;SDS011;4899;42.644;23.366;2022-12-15T05:31:32;36.30;;;23.33;;
9720;SDS011;4899;42.644;23.366;2022-12-15T05:36:55;36.13;;;23.07;;
9720;SDS011;4899;42.644;23.366;2022-12-15T05:39:22;32.00;;;22.43;;
9720;SDS011;4899;42.644;23.366;2022-12-15T05:41:52;35.60;;;23.07;;
9720;SDS011;4899;42.644;23.366;2022-12-15T05:44:18;34.77;;;22.33;;
9720;SDS011;4899;42.644;23.366;2022-12-15T05:46:44;28.93;;;19.83;;
9720;SDS011;4899;42.644;23.366;2022-12-15T05:49:12;34.00;;;22.60;;
9720;SDS011;4899;42.644;23.366;2022-12-15T05:51:41;35.50;;;23.10;;
9720;SDS011;4899;42.644;23.366;2022-12-15T05:54:09;38.03;;;24.10;;
9720;SDS011;4899;42.644;23.366;2022-12-15T05:56:36;42.20;;;26.07;;
9720;SDS011;4899;42.644;23.366;2022-12-15T05:59:02;38.37;;;26.50;;
9720;SDS011;4899;42.644;23.366;2022-12-15T06:01:29;33.20;;;24.87;;
9720;SDS011;4899;42.644;23.366;2022-12-15T06:03:55;36.20;;;25.03;;
9720;SDS011;4899;42.644;23.366;2022-12-15T06:06:22;33.30;;;23.00;;
9720;SDS011;4899;42.644;23.366;2022-12-15T06:08:47;36.23;;;25.37;;
9720;SDS011;4899;42.644;23.366;2022-12-15T06:11:14;38.93;;;26.13;;
9720;SDS011;4899;42.644;23.366;2022-12-15T06:13:40;34.27;;;26.20;;
9720;SDS011;4899;42.644;23.366;2022-12-15T06:16:13;34.57;;;24.67;;
9720;SDS011;4899;42.644;23.366;2022-12-15T06:18:51;35.40;;;24.97;;
9720;SDS011;4899;42.644;23.366;2022-12-15T06:21:19;34.07;;;23.97;;
9720;SDS011;4899;42.644;23.366;2022-12-15T06:23:47;35.30;;;24.80;;
9720;SDS011;4899;42.644;23.366;2022-12-15T06:26:14;31.57;;;22.10;;
9720;SDS011;4899;42.644;23.366;2022-12-15T06:28:47;31.93;;;22.37;;
9720;SDS011;4899;42.644;23.366;2022-12-15T06:31:14;32.40;;;22.63;;
9720;SDS011;4899;42.644;23.366;2022-12-15T06:33:41;30.63;;;21.73;;
9720;SDS011;4899;42.644;23.366;2022-12-15T06:36:08;29.43;;;20.87;;
9720;SDS011;4899;42.644;23.366;2022-12-15T06:38:38;27.97;;;21.40;;
9720;SDS011;4899;42.644;23.366;2022-12-15T06:41:04;27.43;;;20.43;;
9720;SDS011;4899;42.644;23.366;2022-12-15T06:43:31;25.57;;;20.10;;
9720;SDS011;4899;42.644;23.366;2022-12-15T06:45:58;28.53;;;22.33;;
9720;SDS011;4899;42.644;23.366;2022-12-15T06:48:24;27.40;;;22.07;;
9720;SDS011;4899;42.644;23.366;2022-12-15T06:50:50;26.90;;;20.13;;
9720;SDS011;4899;42.644;23.366;2022-12-15T06:53:17;30.80;;;21.30;;
9720;SDS011;4899;42.644;23.366;2022-12-15T06:55:44;26.70;;;20.00;;
9720;SDS011;4899;42.644;23.366;2022-12-15T06:58:10;25.23;;;19.83;;
9720;SDS011;4899;42.644;23.366;2022-12-15T07:00:37;26.63;;;19.70;;
9720;SDS011;4899;42.644;23.366;2022-12-15T07:03:05;22.83;;;19.70;;
9720;SDS011;4899;42.644;23.366;2022-12-15T07:05:32;24.13;;;19.43;;
9720;SDS011;4899;42.644;23.366;2022-12-15T07:07:57;26.37;;;21.73;;
9720;SDS011;4899;42.644;23.366;2022-12-15T07:10:22;27.43;;;20.83;;
9720;SDS011;4899;42.644;23.366;2022-12-15T07:12:48;22.20;;;19.80;;
9720;SDS011;4899;42.644;23.366;2022-12-15T07:15:13;27.37;;;20.87;;
9720;SDS011;4899;42.644;23.366;2022-12-15T07:17:39;23.47;;;19.33;;
9720;SDS011;4899;42.644;23.366;2022-12-15T07:20:04;23.50;;;19.17;;
9720;SDS011;4899;42.644;23.366;2022-12-15T07:22:30;27.33;;;19.27;;
9720;SDS011;4899;42.644;23.366;2022-12-15T07:24:56;22.33;;;18.27;;
9720;SDS011;4899;42.644;23.366;2022-12-15T07:27:22;21.33;;;18.00;;
9720;SDS011;4899;42.644;23.366;2022-12-15T07:29:47;24.07;;;17.10;;
9720;SDS011;4899;42.644;23.366;2022-12-15T07:32:13;20.90;;;17.50;;
9720;SDS011;4899;42.644;23.366;2022-12-15T07:34:39;19.47;;;17.37;;
9720;SDS011;4899;42.644;23.366;2022-12-15T07:37:05;24.37;;;17.93;;
9720;SDS011;4899;42.644;23.366;2022-12-15T07:39:31;22.23;;;19.00;;
9720;SDS011;4899;42.644;23.366;2022-12-15T07:41:56;21.57;;;17.67;;
9720;SDS011;4899;42.644;23.366;2022-12-15T07:44:22;22.80;;;19.50;;
9720;SDS011;4899;42.644;23.366;2022-12-15T07:46:47;31.23;;;21.40;;
9720;SDS011;4899;42.644;23.366;2022-12-15T07:49:13;25.87;;;20.17;;
9720;SDS011;4899;42.644;23.366;2022-12-15T07:51:40;23.67;;;18.97;;
9720;SDS011;4899;42.644;23.366;2022-12-15T07:54:07;20.83;;;17.30;;
9720;SDS011;4899;42.644;23.366;2022-12-15T07:56:35;23.13;;;18.07;;
9720;SDS011;4899;42.644;23.366;2022-12-15T07:59:01;21.73;;;17.30;;
9720;SDS011;4899;42.644;23.366;2022-12-15T08:01:27;21.47;;;18.30;;
9720;SDS011;4899;42.644;23.366;2022-12-15T08:03:52;26.13;;;20.37;;
9720;SDS011;4899;42.644;23.366;2022-12-15T08:06:18;22.17;;;18.33;;
9720;SDS011;4899;42.644;23.366;2022-12-15T08:08:44;24.90;;;18.90;;
9720;SDS011;4899;42.644;23.366;2022-12-15T08:11:11;20.33;;;18.07;;
9720;SDS011;4899;42.644;23.366;2022-12-15T08:13:38;20.50;;;18.03;;
9720;SDS011;4899;42.644;23.366;2022-12-15T08:16:05;25.97;;;20.07;;
9720;SDS011;4899;42.644;23.366;2022-12-15T08:18:30;21.90;;;19.30;;
9720;SDS011;4899;42.644;23.366;2022-12-15T08:21:00;20.77;;;18.37;;
9720;SDS011;4899;42.644;23.366;2022-12-15T08:23:30;21.57;;;18.23;;
9720;SDS011;4899;42.644;23.366;2022-12-15T08:28:28;23.23;;;19.27;;
9720;SDS011;4899;42.644;23.366;2022-12-15T08:30:54;20.23;;;17.90;;
9720;SDS011;4899;42.644;23.366;2022-12-15T08:33:19;21.23;;;18.10;;
9720;SDS011;4899;42.644;23.366;2022-12-15T08:35:45;24.30;;;19.17;;
9720;SDS011;4899;42.644;23.366;2022-12-15T08:38:11;22.77;;;19.67;;
9720;SDS011;4899;42.644;23.366;2022-12-15T08:40:36;22.23;;;18.50;;
9720;SDS011;4899;42.644;23.366;2022-12-15T08:43:02;23.80;;;19.57;;
9720;SDS011;4899;42.644;23.366;2022-12-15T08:45:27;24.87;;;20.83;;
9720;SDS011;4899;42.644;23.366;2022-12-15T08:47:54;23.83;;;19.93;;
9720;SDS011;4899;42.644;23.366;2022-12-15T08:50:19;22.27;;;19.93;;
9720;SDS011;4899;42.644;23.366;2022-12-15T08:52:47;22.47;;;19.97;;
9720;SDS011;4899;42.644;23.366;2022-12-15T08:55:13;23.50;;;21.00;;
9720;SDS011;4899;42.644;23.366;2022-12-15T08:57:39;30.47;;;25.83;;
9720;SDS011;4899;42.644;23.366;2022-12-15T09:00:05;30.30;;;27.00;;
9720;SDS011;4899;42.644;23.366;2022-12-15T09:02:31;27.87;;;24.70;;
9720;SDS011;4899;42.644;23.366;2022-12-15T09:04:56;29.27;;;22.83;;
9720;SDS011;4899;42.644;23.366;2022-12-15T09:07:21;28.60;;;24.93;;
9720;SDS011;4899;42.644;23.366;2022-12-15T09:09:47;35.10;;;26.57;;
9720;SDS011;4899;42.644;23.366;2022-12-15T09:12:12;30.43;;;25.67;;
9720;SDS011;4899;42.644;23.366;2022-12-15T09:14:38;26.30;;;22.37;;
9720;SDS011;4899;42.644;23.366;2022-12-15T09:17:03;25.37;;;20.67;;
9720;SDS011;4899;42.644;23.366;2022-12-15T09:19:29;21.93;;;19.67;;
9720;SDS011;4899;42.644;23.366;2022-12-15T09:21:54;22.23;;;18.33;;
9720;SDS011;4899;42.644;23.366;2022-12-15T09:24:20;21.10;;;18.63;;
9720;SDS011;4899;42.644;23.366;2022-12-15T09:26:45;22.00;;;17.37;;
9720;SDS011;4899;42.644;23.366;2022-12-15T09:29:11;21.40;;;14.90;;
9720;SDS011;4899;42.644;23.366;2022-12-15T09:31:39;17.23;;;15.13;;
9720;SDS011;4899;42.644;23.366;2022-12-15T09:34:10;16.10;;;14.40;;
9720;SDS011;4899;42.644;23.366;2022-12-15T09:36:39;17.97;;;15.70;;
9720;SDS011;4899;42.644;23.366;2022-12-15T09:39:04;19.13;;;17.13;;
9720;SDS011;4899;42.644;23.366;2022-12-15T09:41:31;19.87;;;17.00;;
9720;SDS011;4899;42.644;23.366;2022-12-15T09:44:14;18.57;;;16.37;;
9720;SDS011;4899;42.644;23.366;2022-12-15T09:49:37;17.80;;;15.70;;
9720;SDS011;4899;42.644;23.366;2022-12-15T09:52:17;19.77;;;17.67;;
9720;SDS011;4899;42.644;23.366;2022-12-15T09:54:46;18.63;;;16.70;;
9720;SDS011;4899;42.644;23.366;2022-12-15T10:00:02;22.80;;;20.20;;
9720;SDS011;4899;42.644;23.366;2022-12-15T10:05:28;23.10;;;19.87;;
9720;SDS011;4899;42.644;23.366;2022-12-15T10:08:02;24.53;;;22.03;;
9720;SDS011;4899;42.644;23.366;2022-12-15T10:10:38;30.30;;;23.60;;
9720;SDS011;4899;42.644;23.366;2022-12-15T10:13:16;27.20;;;23.20;;
9720;SDS011;4899;42.644;23.366;2022-12-15T10:15:49;26.60;;;22.50;;
9720;SDS011;4899;42.644;23.366;2022-12-15T10:18:22;24.27;;;21.33;;
9720;SDS011;4899;42.644;23.366;2022-12-15T10:20:59;24.23;;;21.73;;
9720;SDS011;4899;42.644;23.366;2022-12-15T10:23:26;26.23;;;23.37;;
9720;SDS011;4899;42.644;23.366;2022-12-15T10:25:57;28.97;;;25.10;;
9720;SDS011;4899;42.644;23.366;2022-12-15T10:28:49;25.83;;;22.97;;
9720;SDS011;4899;42.644;23.366;2022-12-15T10:31:24;27.60;;;24.70;;
9720;SDS011;4899;42.644;23.366;2022-12-15T10:34:04;27.77;;;24.83;;
9720;SDS011;4899;42.644;23.366;2022-12-15T10:36:35;34.37;;;26.80;;
9720;SDS011;4899;42.644;23.366;2022-12-15T10:39:00;32.30;;;27.40;;
9720;SDS011;4899;42.644;23.366;2022-12-15T10:41:26;31.83;;;27.60;;
9720;SDS011;4899;42.644;23.366;2022-12-15T10:43:56;31.97;;;28.17;;
9720;SDS011;4899;42.644;23.366;2022-12-15T10:48:48;30.57;;;27.37;;
9720;SDS011;4899;42.644;23.366;2022-12-15T10:51:16;34.17;;;30.70;;
9720;SDS011;4899;42.644;23.366;2022-12-15T10:56:28;35.43;;;31.60;;
9720;SDS011;4899;42.644;23.366;2022-12-15T11:04:57;33.07;;;29.67;;
9720;SDS011;4899;42.644;23.366;2022-12-15T11:07:25;32.07;;;28.77;;
9720;SDS011;4899;42.644;23.366;2022-12-15T11:09:58;32.77;;;29.37;;
9720;SDS011;4899;42.644;23.366;2022-12-15T11:12:27;35.17;;;30.17;;
9720;SDS011;4899;42.644;23.366;2022-12-15T11:17:45;33.70;;;30.13;;
9720;SDS011;4899;42.644;23.366;2022-12-15T11:20:20;35.77;;;31.97;;
9720;SDS011;4899;42.644;23.366;2022-12-15T11:25:44;30.23;;;27.03;;
9720;SDS011;4899;42.644;23.366;2022-12-15T11:28:15;29.10;;;26.03;;
9720;SDS011;4899;42.644;23.366;2022-12-15T11:30:59;28.30;;;25.43;;
9720;SDS011;4899;42.644;23.366;2022-12-15T11:33:31;27.70;;;24.70;;
9720;SDS011;4899;42.644;23.366;2022-12-15T11:36:05;31.27;;;25.50;;
9720;SDS011;4899;42.644;23.366;2022-12-15T11:38:59;26.03;;;22.97;;
9720;SDS011;4899;42.644;23.366;2022-12-15T11:50:13;30.93;;;27.80;;
9720;SDS011;4899;42.644;23.366;2022-12-15T12:00:17;29.40;;;26.43;;
9720;SDS011;4899;42.644;23.366;2022-12-15T12:18:33;24.60;;;22.23;;
9720;SDS011;4899;42.644;23.366;2022-12-15T12:21:16;23.67;;;21.23;;
9720;SDS011;4899;42.644;23.366;2022-12-15T12:26:55;24.73;;;22.07;;
9720;SDS011;4899;42.644;23.366;2022-12-15T12:37:24;25.67;;;22.97;;
9720;SDS011;4899;42.644;23.366;2022-12-15T12:42:55;23.93;;;21.53;;
9720;SDS011;4899;42.644;23.366;2022-12-15T12:45:23;23.40;;;21.00;;
9720;SDS011;4899;42.644;23.366;2022-12-15T12:47:55;24.67;;;21.73;;
9720;SDS011;4899;42.644;23.366;2022-12-15T12:50:26;23.27;;;21.07;;
9720;SDS011;4899;42.644;23.366;2022-12-15T12:52:55;22.83;;;20.53;;
9720;SDS011;4899;42.644;23.366;2022-12-15T12:57:50;26.53;;;22.43;;
9720;SDS011;4899;42.644;23.366;2022-12-15T13:05:26;27.03;;;24.23;;
9720;SDS011;4899;42.644;23.366;2022-12-15T13:07:54;27.57;;;24.67;;
9720;SDS011;4899;42.644;23.366;2022-12-15T13:10:30;26.93;;;24.10;;
9720;SDS011;4899;42.644;23.366;2022-12-15T13:12:57;29.10;;;25.60;;
9720;SDS011;4899;42.644;23.366;2022-12-15T13:18:16;30.63;;;26.63;;
9720;SDS011;4899;42.644;23.366;2022-12-15T13:20:45;27.43;;;24.73;;
9720;SDS011;4899;42.644;23.366;2022-12-15T13:26:29;30.03;;;25.40;;
9720;SDS011;4899;42.644;23.366;2022-12-15T13:47:11;35.20;;;29.77;;
9720;SDS011;4899;42.644;23.366;2022-12-15T13:49:46;34.30;;;30.60;;
9720;SDS011;4899;42.644;23.366;2022-12-15T13:55:10;30.77;;;27.47;;
9720;SDS011;4899;42.644;23.366;2022-12-15T13:57:56;33.43;;;27.57;;
9720;SDS011;4899;42.644;23.366;2022-12-15T14:00:27;31.30;;;27.93;;
9720;SDS011;4899;42.644;23.366;2022-12-15T14:03:08;33.07;;;28.40;;
9720;SDS011;4899;42.644;23.366;2022-12-15T14:05:35;30.03;;;26.83;;
9720;SDS011;4899;42.644;23.366;2022-12-15T14:08:06;31.60;;;27.77;;
9720;SDS011;4899;42.644;23.366;2022-12-15T14:10:41;32.20;;;27.47;;
9720;SDS011;4899;42.644;23.366;2022-12-15T14:13:21;31.90;;;26.90;;
9720;SDS011;4899;42.644;23.366;2022-12-15T14:16:01;29.27;;;26.00;;
9720;SDS011;4899;42.644;23.366;2022-12-15T14:18:28;33.60;;;27.23;;
9720;SDS011;4899;42.644;23.366;2022-12-15T14:21:16;34.37;;;27.50;;
9720;SDS011;4899;42.644;23.366;2022-12-15T14:23:48;35.90;;;30.53;;
9720;SDS011;4899;42.644;23.366;2022-12-15T14:26:14;34.93;;;29.77;;
9720;SDS011;4899;42.644;23.366;2022-12-15T14:28:57;37.83;;;30.57;;
9720;SDS011;4899;42.644;23.366;2022-12-15T14:31:25;35.37;;;31.27;;
9720;SDS011;4899;42.644;23.366;2022-12-15T14:34:07;35.40;;;31.30;;
9720;SDS011;4899;42.644;23.366;2022-12-15T14:36:39;38.20;;;32.13;;
9720;SDS011;4899;42.644;23.366;2022-12-15T14:39:12;39.07;;;32.60;;
9720;SDS011;4899;42.644;23.366;2022-12-15T14:41:45;41.97;;;34.10;;
9720;SDS011;4899;42.644;23.366;2022-12-15T14:46:44;48.87;;;38.07;;
9720;SDS011;4899;42.644;23.366;2022-12-15T14:49:17;52.90;;;43.93;;
9720;SDS011;4899;42.644;23.366;2022-12-15T14:51:47;60.53;;;46.60;;
9720;SDS011;4899;42.644;23.366;2022-12-15T14:57:13;50.40;;;36.67;;
9720;SDS011;4899;42.644;23.366;2022-12-15T14:59:45;50.73;;;34.33;;
9720;SDS011;4899;42.644;23.366;2022-12-15T15:02:16;58.27;;;34.77;;
9720;SDS011;4899;42.644;23.366;2022-12-15T15:04:54;60.40;;;35.10;;
9720;SDS011;4899;42.644;23.366;2022-12-15T15:07:24;58.20;;;34.50;;
9720;SDS011;4899;42.644;23.366;2022-12-15T15:09:52;58.97;;;35.13;;
9720;SDS011;4899;42.644;23.366;2022-12-15T15:12:19;62.67;;;36.30;;
9720;SDS011;4899;42.644;23.366;2022-12-15T15:14:51;51.73;;;34.03;;
9720;SDS011;4899;42.644;23.366;2022-12-15T15:17:34;57.17;;;35.17;;
9720;SDS011;4899;42.644;23.366;2022-12-15T15:20:02;51.50;;;34.73;;
9720;SDS011;4899;42.644;23.366;2022-12-15T15:22:36;60.27;;;35.40;;
9720;SDS011;4899;42.644;23.366;2022-12-15T15:33:09;53.70;;;36.10;;
9720;SDS011;4899;42.644;23.366;2022-12-15T15:35:37;60.97;;;37.73;;
9720;SDS011;4899;42.644;23.366;2022-12-15T15:38:06;64.50;;;38.47;;
9720;SDS011;4899;42.644;23.366;2022-12-15T15:40:40;53.93;;;35.80;;
9720;SDS011;4899;42.644;23.366;2022-12-15T15:43:11;53.17;;;35.87;;
9720;SDS011;4899;42.644;23.366;2022-12-15T15:45:41;58.93;;;37.47;;
9720;SDS011;4899;42.644;23.366;2022-12-15T15:48:08;57.83;;;36.53;;
9720;SDS011;4899;42.644;23.366;2022-12-15T15:50:38;53.70;;;36.57;;
9720;SDS011;4899;42.644;23.366;2022-12-15T15:53:03;49.30;;;34.60;;
9720;SDS011;4899;42.644;23.366;2022-12-15T15:55:29;66.97;;;36.77;;
9720;SDS011;4899;42.644;23.366;2022-12-15T15:57:57;51.07;;;32.80;;
9720;SDS011;4899;42.644;23.366;2022-12-15T16:00:23;47.13;;;31.27;;
9720;SDS011;4899;42.644;23.366;2022-12-15T16:02:49;46.37;;;31.50;;
9720;SDS011;4899;42.644;23.366;2022-12-15T16:05:15;49.47;;;31.70;;
9720;SDS011;4899;42.644;23.366;2022-12-15T16:07:41;49.77;;;33.53;;
9720;SDS011;4899;42.644;23.366;2022-12-15T16:10:10;47.60;;;32.20;;
9720;SDS011;4899;42.644;23.366;2022-12-15T16:12:41;46.60;;;32.87;;
9720;SDS011;4899;42.644;23.366;2022-12-15T16:15:29;42.47;;;30.57;;
9720;SDS011;4899;42.644;23.366;2022-12-15T16:17:58;46.00;;;31.60;;
9720;SDS011;4899;42.644;23.366;2022-12-15T16:20:25;55.50;;;32.97;;
9720;SDS011;4899;42.644;23.366;2022-12-15T16:22:54;46.63;;;32.03;;
9720;SDS011;4899;42.644;23.366;2022-12-15T16:27:54;48.70;;;33.43;;
9720;SDS011;4899;42.644;23.366;2022-12-15T16:30:21;50.53;;;33.97;;
9720;SDS011;4899;42.644;23.366;2022-12-15T16:32:49;58.47;;;39.07;;
9720;SDS011;4899;42.644;23.366;2022-12-15T16:35:15;46.53;;;34.83;;
9720;SDS011;4899;42.644;23.366;2022-12-15T16:37:42;51.30;;;38.23;;
9720;SDS011;4899;42.644;23.366;2022-12-15T16:43:00;48.70;;;36.90;;
9720;SDS011;4899;42.644;23.366;2022-12-15T16:45:28;46.27;;;33.57;;
9720;SDS011;4899;42.644;23.366;2022-12-15T16:47:54;47.60;;;36.07;;
9720;SDS011;4899;42.644;23.366;2022-12-15T16:50:22;46.03;;;34.73;;
9720;SDS011;4899;42.644;23.366;2022-12-15T16:52:54;51.53;;;38.43;;
9720;SDS011;4899;42.644;23.366;2022-12-15T16:55:23;59.23;;;45.13;;
9720;SDS011;4899;42.644;23.366;2022-12-15T16:57:51;54.10;;;39.10;;
9720;SDS011;4899;42.644;23.366;2022-12-15T17:00:22;54.43;;;40.13;;
9720;SDS011;4899;42.644;23.366;2022-12-15T17:02:50;47.07;;;36.27;;
9720;SDS011;4899;42.644;23.366;2022-12-15T17:05:16;55.73;;;37.73;;
9720;SDS011;4899;42.644;23.366;2022-12-15T17:07:42;48.13;;;39.43;;
9720;SDS011;4899;42.644;23.366;2022-12-15T17:10:19;47.87;;;35.03;;
9720;SDS011;4899;42.644;23.366;2022-12-15T17:12:47;53.73;;;38.67;;
9720;SDS011;4899;42.644;23.366;2022-12-15T17:15:23;49.17;;;37.40;;
9720;SDS011;4899;42.644;23.366;2022-12-15T17:17:51;51.83;;;37.33;;
9720;SDS011;4899;42.644;23.366;2022-12-15T17:20:21;49.83;;;38.83;;
9720;SDS011;4899;42.644;23.366;2022-12-15T17:22:53;76.13;;;48.33;;
9720;SDS011;4899;42.644;23.366;2022-12-15T17:25:22;58.13;;;41.10;;
9720;SDS011;4899;42.644;23.366;2022-12-15T17:27:51;52.70;;;38.33;;
9720;SDS011;4899;42.644;23.366;2022-12-15T17:30:20;65.93;;;41.30;;
9720;SDS011;4899;42.644;23.366;2022-12-15T17:32:46;54.70;;;39.17;;
9720;SDS011;4899;42.644;23.366;2022-12-15T17:35:15;57.20;;;41.03;;